Time;durP1;ratioP1;P1;durP2;ratioP2;P2;SDS_P1;SDS_P2;PMS_P1;PMS_P2;Temp;Humidity;BMP_temperature;BMP_pressure;BME280_temperature;BME280_humidity;BME280_pressure;Samples;Min_cycle;Max_cycle;Signal;HPM_P1;HPM_P2
2023/12/12 00:02:15;;;;;;;;;1.00;0.67;;;;;;;;5097738;27;45413;-72
2023/12/12 00:04:40;;;;;;;;;0.00;0.00;;;;;;;;5098431;27;45320;-73
2023/12/12 00:07:05;;;;;;;;;0.33;0.33;;;;;;;;5098649;27;45208;-73
2023/12/12 00:09:31;;;;;;;;;0.00;0.00;;;;;;;;5099196;27;45321;-72
2023/12/12 00:11:56;;;;;;;;;0.00;0.00;;;;;;;;5098539;27;45231;-73
2023/12/12 00:14:21;;;;;;;;;0.33;0.33;;;;;;;;5098450;27;45491;-73
2023/12/12 00:16:47;;;;;;;;;0.00;0.00;;;;;;;;5098596;27;45525;-73
2023/12/12 00:19:12;;;;;;;;;0.00;0.00;;;;;;;;5098658;27;45317;-72
2023/12/12 00:21:37;;;;;;;;;0.00;0.00;;;;;;;;5098281;27;45486;-73
2023/12/12 00:24:03;;;;;;;;;0.67;0.00;;;;;;;;5098558;27;45266;-73
2023/12/12 00:26:29;;;;;;;;;0.00;0.00;;;;;;;;5098552;27;45305;-72
2023/12/12 00:28:54;;;;;;;;;0.00;0.00;;;;;;;;5098577;27;45385;-76
2023/12/12 00:31:20;;;;;;;;;0.00;0.00;;;;;;;;5098182;27;46351;-73
2023/12/12 00:33:45;;;;;;;;;0.00;0.00;;;;;;;;5098196;27;45768;-73
2023/12/12 00:36:10;;;;;;;;;0.33;0.33;;;;;;;;5098236;27;45184;-72
2023/12/12 00:38:36;;;;;;;;;1.00;0.00;;;;;;;;5098388;27;45507;-72
2023/12/12 00:41:02;;;;;;;;;1.00;0.00;;;;;;;;5098375;27;45916;-73
2023/12/12 00:43:27;;;;;;;;;0.33;0.33;;;;;;;;5097896;27;45494;-72
2023/12/12 00:45:53;;;;;;;;;0.00;0.00;;;;;;;;5098176;27;45416;-72
2023/12/12 00:48:18;;;;;;;;;0.00;0.00;;;;;;;;5098177;27;45294;-72
2023/12/12 00:50:44;;;;;;;;;0.00;0.00;;;;;;;;5097855;27;45241;-72
2023/12/12 00:53:09;;;;;;;;;0.67;0.67;;;;;;;;5097715;27;45389;-72
2023/12/12 00:55:35;;;;;;;;;1.00;1.00;;;;;;;;5098304;27;45459;-73
2023/12/12 00:58:00;;;;;;;;;0.00;0.00;;;;;;;;5098215;27;45424;-72
2023/12/12 01:00:26;;;;;;;;;0.00;0.00;;;;;;;;5097771;27;45986;-72
2023/12/12 01:02:51;;;;;;;;;0.00;0.00;;;;;;;;5097831;27;45368;-72
2023/12/12 01:05:16;;;;;;;;;0.00;0.00;;;;;;;;5097887;27;45300;-73
2023/12/12 01:07:42;;;;;;;;;1.33;1.00;;;;;;;;5098140;27;45357;-72
2023/12/12 01:10:07;;;;;;;;;0.00;0.00;;;;;;;;5097940;27;45546;-74
2023/12/12 01:12:33;;;;;;;;;1.00;0.33;;;;;;;;5097910;27;45437;-72
2023/12/12 01:14:58;;;;;;;;;0.00;0.00;;;;;;;;5097778;27;45251;-72
2023/12/12 01:17:25;;;;;;;;;1.00;1.00;;;;;;;;5101653;27;45454;-72
2023/12/12 01:19:50;;;;;;;;;0.00;0.00;;;;;;;;5101100;27;45290;-72
2023/12/12 01:22:16;;;;;;;;;0.00;0.00;;;;;;;;5101145;27;45423;-73
2023/12/12 01:24:41;;;;;;;;;0.00;0.00;;;;;;;;5101270;27;45298;-72
2023/12/12 01:27:08;;;;;;;;;0.00;0.00;;;;;;;;5101638;27;45457;-75
2023/12/12 01:29:34;;;;;;;;;0.67;0.67;;;;;;;;5101255;27;45316;-73
2023/12/12 01:31:59;;;;;;;;;0.00;0.00;;;;;;;;5101070;27;45406;-73
2023/12/12 01:34:25;;;;;;;;;0.67;0.67;;;;;;;;5099539;27;45360;-73
2023/12/12 01:36:50;;;;;;;;;0.00;0.00;;;;;;;;5101163;27;45356;-73
2023/12/12 01:39:15;;;;;;;;;1.00;0.00;;;;;;;;5100888;27;45396;-72
2023/12/12 01:41:41;;;;;;;;;0.00;0.00;;;;;;;;5100955;27;45467;-72
2023/12/12 01:44:06;;;;;;;;;0.33;0.33;;;;;;;;5101291;27;45549;-75
2023/12/12 01:46:32;;;;;;;;;2.00;1.00;;;;;;;;5101054;27;45443;-75
2023/12/12 01:48:57;;;;;;;;;1.00;1.00;;;;;;;;5100591;27;46044;-72
2023/12/12 01:51:22;;;;;;;;;0.00;0.00;;;;;;;;5100781;27;45530;-72
2023/12/12 01:53:50;;;;;;;;;1.00;0.00;;;;;;;;5100720;27;45538;-72
2023/12/12 01:56:15;;;;;;;;;1.00;1.00;;;;;;;;5100956;27;45583;-72
2023/12/12 01:58:43;;;;;;;;;0.00;0.00;;;;;;;;5100587;27;46257;-73
2023/12/12 02:01:08;;;;;;;;;0.00;0.00;;;;;;;;5100979;27;45289;-75
2023/12/12 02:03:35;;;;;;;;;1.00;1.00;;;;;;;;5100593;27;45503;-72
2023/12/12 02:06:01;;;;;;;;;0.00;0.00;;;;;;;;5100809;27;45329;-72
2023/12/12 02:08:27;;;;;;;;;0.33;0.00;;;;;;;;5100272;27;45325;-72
2023/12/12 02:10:53;;;;;;;;;0.00;0.00;;;;;;;;5100489;27;45497;-73
2023/12/12 02:13:18;;;;;;;;;0.00;0.00;;;;;;;;5100556;27;45524;-73
2023/12/12 02:15:44;;;;;;;;;1.00;1.00;;;;;;;;5100797;27;45521;-72
2023/12/12 02:18:09;;;;;;;;;0.00;0.00;;;;;;;;5100518;27;46151;-77
2023/12/12 02:20:34;;;;;;;;;1.00;1.00;;;;;;;;5100253;27;45342;-72
2023/12/12 02:23:00;;;;;;;;;0.67;0.67;;;;;;;;5100331;27;45440;-72
2023/12/12 02:25:25;;;;;;;;;1.00;1.00;;;;;;;;5100025;27;45461;-72
2023/12/12 02:27:50;;;;;;;;;0.33;0.33;;;;;;;;5100083;27;45416;-73
2023/12/12 02:30:17;;;;;;;;;0.00;0.00;;;;;;;;5100150;27;45324;-73
2023/12/12 02:32:42;;;;;;;;;1.00;1.00;;;;;;;;5100090;27;45221;-73
2023/12/12 02:35:08;;;;;;;;;2.00;1.00;;;;;;;;5100491;27;45380;-72
2023/12/12 02:37:33;;;;;;;;;0.00;0.00;;;;;;;;5099863;27;45798;-72
2023/12/12 02:39:58;;;;;;;;;1.00;1.00;;;;;;;;5098539;27;45277;-73
2023/12/12 02:42:24;;;;;;;;;0.00;0.00;;;;;;;;5099959;27;45370;-73
2023/12/12 02:44:49;;;;;;;;;0.33;0.33;;;;;;;;5100022;27;45163;-73
2023/12/12 02:47:14;;;;;;;;;1.00;1.00;;;;;;;;5099466;27;46141;-73
2023/12/12 02:49:40;;;;;;;;;0.67;0.67;;;;;;;;5099134;27;45448;-76
2023/12/12 02:52:05;;;;;;;;;1.00;1.00;;;;;;;;5099244;27;45388;-73
2023/12/12 02:54:30;;;;;;;;;0.00;0.00;;;;;;;;5095124;27;45625;-73
2023/12/12 02:56:56;;;;;;;;;1.00;1.00;;;;;;;;5078840;27;46046;-75
2023/12/12 02:59:21;;;;;;;;;1.00;1.00;;;;;;;;5078813;27;45396;-73
2023/12/12 03:01:47;;;;;;;;;0.00;0.00;;;;;;;;5078632;27;45369;-75
2023/12/12 03:04:12;;;;;;;;;1.00;1.00;;;;;;;;5079204;27;45476;-74
2023/12/12 03:06:38;;;;;;;;;1.00;1.00;;;;;;;;5077385;27;45977;-73
2023/12/12 03:09:03;;;;;;;;;1.00;1.00;;;;;;;;5079131;27;45464;-72
2023/12/12 03:11:28;;;;;;;;;0.00;0.00;;;;;;;;5078314;27;45475;-75
2023/12/12 03:13:54;;;;;;;;;0.00;0.00;;;;;;;;5079018;27;45303;-72
2023/12/12 03:16:19;;;;;;;;;1.00;1.00;;;;;;;;5078868;27;45865;-72
2023/12/12 03:18:44;;;;;;;;;1.00;1.00;;;;;;;;5078837;27;45259;-73
2023/12/12 03:21:10;;;;;;;;;1.00;1.00;;;;;;;;5079359;27;45422;-72
2023/12/12 03:23:35;;;;;;;;;1.00;1.00;;;;;;;;5079075;27;45421;-73
2023/12/12 03:26:08;;;;;;;;;0.33;0.33;;;;;;;;5078745;27;45286;-73
2023/12/12 03:28:34;;;;;;;;;2.00;1.00;;;;;;;;5078750;27;45429;-72
2023/12/12 03:30:59;;;;;;;;;0.33;0.33;;;;;;;;5078844;27;45243;-72
2023/12/12 03:33:25;;;;;;;;;1.00;1.00;;;;;;;;5078895;27;45377;-73
2023/12/12 03:35:50;;;;;;;;;1.00;0.00;;;;;;;;5078717;27;45827;-73
2023/12/12 03:38:15;;;;;;;;;1.00;1.00;;;;;;;;5077712;27;45439;-73
2023/12/12 03:40:41;;;;;;;;;1.67;1.00;;;;;;;;5079109;27;45475;-72
2023/12/12 03:43:07;;;;;;;;;1.00;1.00;;;;;;;;5078876;27;45442;-73
2023/12/12 03:45:33;;;;;;;;;1.67;1.00;;;;;;;;5078360;27;45516;-73
2023/12/12 03:47:58;;;;;;;;;1.00;1.00;;;;;;;;5078532;27;45412;-72
2023/12/12 03:50:23;;;;;;;;;1.00;1.00;;;;;;;;5078638;27;45887;-72
2023/12/12 03:52:49;;;;;;;;;1.00;0.67;;;;;;;;5078443;27;45214;-72
2023/12/12 03:55:14;;;;;;;;;1.00;1.00;;;;;;;;5078572;27;46130;-74
2023/12/12 03:57:39;;;;;;;;;0.67;0.33;;;;;;;;5078438;27;45230;-73
2023/12/12 04:00:07;;;;;;;;;1.00;1.00;;;;;;;;5078371;27;45278;-73
2023/12/12 04:02:32;;;;;;;;;1.00;1.00;;;;;;;;5078539;27;45272;-73
2023/12/12 04:04:57;;;;;;;;;1.00;1.00;;;;;;;;5078012;28;45388;-73
2023/12/12 04:07:23;;;;;;;;;1.00;1.00;;;;;;;;5078231;27;45362;-72
2023/12/12 04:09:48;;;;;;;;;1.00;1.00;;;;;;;;5078369;27;45224;-73
2023/12/12 04:12:13;;;;;;;;;1.00;0.33;;;;;;;;5077385;28;45293;-74
2023/12/12 04:14:39;;;;;;;;;1.00;1.00;;;;;;;;5077780;27;45966;-73
2023/12/12 04:17:05;;;;;;;;;2.00;1.00;;;;;;;;5077968;27;45453;-72
2023/12/12 04:19:30;;;;;;;;;1.00;1.00;;;;;;;;5078014;27;45303;-72
2023/12/12 04:21:55;;;;;;;;;1.00;1.00;;;;;;;;5078203;27;45552;-72
2023/12/12 04:24:21;;;;;;;;;1.00;1.00;;;;;;;;5077808;27;45148;-73
2023/12/12 04:26:46;;;;;;;;;1.00;1.00;;;;;;;;5078041;27;45615;-75
2023/12/12 04:29:12;;;;;;;;;1.00;1.00;;;;;;;;5077736;27;45581;-72
2023/12/12 04:31:37;;;;;;;;;1.33;1.00;;;;;;;;5077965;27;45421;-73
2023/12/12 04:34:02;;;;;;;;;1.00;0.33;;;;;;;;5077505;27;45308;-73
2023/12/12 04:36:28;;;;;;;;;1.00;1.00;;;;;;;;5077843;28;45284;-73
2023/12/12 04:38:53;;;;;;;;;2.00;1.00;;;;;;;;5077878;27;45172;-73
2023/12/12 04:41:18;;;;;;;;;1.00;1.00;;;;;;;;5078049;27;45469;-75
2023/12/12 04:43:44;;;;;;;;;1.00;1.00;;;;;;;;5077842;27;46052;-75
2023/12/12 04:46:09;;;;;;;;;1.00;1.00;;;;;;;;5077583;27;45153;-76
2023/12/12 04:48:35;;;;;;;;;2.00;2.00;;;;;;;;5077623;27;45858;-73
2023/12/12 04:51:02;;;;;;;;;1.00;0.33;;;;;;;;5077872;27;45478;-73
2023/12/12 04:53:27;;;;;;;;;1.67;1.00;;;;;;;;5077110;27;45384;-75
2023/12/12 04:55:52;;;;;;;;;1.00;1.00;;;;;;;;5077522;27;45373;-73
2023/12/12 04:58:18;;;;;;;;;1.00;1.00;;;;;;;;5077945;27;45424;-72
2023/12/12 05:00:43;;;;;;;;;1.00;1.00;;;;;;;;5077692;27;45375;-73
2023/12/12 05:03:09;;;;;;;;;2.00;1.00;;;;;;;;5077256;27;45971;-73
2023/12/12 05:05:34;;;;;;;;;1.00;1.00;;;;;;;;5077316;27;45364;-73
2023/12/12 05:07:59;;;;;;;;;0.00;0.00;;;;;;;;5077375;27;45374;-73
2023/12/12 05:10:25;;;;;;;;;1.33;1.33;;;;;;;;5077478;27;45428;-73
2023/12/12 05:12:50;;;;;;;;;3.00;2.00;;;;;;;;5077353;27;45944;-74
2023/12/12 05:15:15;;;;;;;;;1.00;0.67;;;;;;;;5077115;27;45538;-75
2023/12/12 05:17:41;;;;;;;;;2.00;1.00;;;;;;;;5077563;27;45305;-73
2023/12/12 05:20:09;;;;;;;;;2.00;2.00;;;;;;;;5076179;28;45410;-76
2023/12/12 05:22:34;;;;;;;;;1.00;1.00;;;;;;;;5077178;27;45329;-73
2023/12/12 05:25:00;;;;;;;;;1.33;1.00;;;;;;;;5077139;28;45313;-73
2023/12/12 05:27:25;;;;;;;;;2.33;1.00;;;;;;;;5077316;27;45275;-72
2023/12/12 05:29:50;;;;;;;;;1.33;1.33;;;;;;;;5077529;27;45352;-75
2023/12/12 05:32:16;;;;;;;;;0.67;0.33;;;;;;;;5076962;27;46041;-73
2023/12/12 05:34:41;;;;;;;;;3.00;0.67;;;;;;;;5076952;27;45428;-72
2023/12/12 05:37:08;;;;;;;;;1.00;1.00;;;;;;;;5077079;27;45251;-73
2023/12/12 05:39:33;;;;;;;;;1.00;1.00;;;;;;;;5077338;27;45503;-72
2023/12/12 05:41:58;;;;;;;;;1.67;1.67;;;;;;;;5076652;28;46175;-72
2023/12/12 05:44:24;;;;;;;;;3.00;2.67;;;;;;;;5088599;27;45513;-75
2023/12/12 05:46:50;;;;;;;;;2.33;2.00;;;;;;;;5097611;27;45376;-76
2023/12/12 05:49:16;;;;;;;;;2.00;2.00;;;;;;;;5097325;27;45349;-76
2023/12/12 05:51:41;;;;;;;;;1.00;1.00;;;;;;;;5096823;27;45497;-75
2023/12/12 05:54:11;;;;;;;;;2.00;2.00;;;;;;;;5096656;27;45538;-75
2023/12/12 05:56:37;;;;;;;;;4.00;3.00;;;;;;;;5097010;27;45546;-75
2023/12/12 05:59:02;;;;;;;;;1.67;1.67;;;;;;;;5097035;27;46195;-74
2023/12/12 06:01:28;;;;;;;;;2.00;1.33;;;;;;;;5098873;27;45420;-74
2023/12/12 06:03:54;;;;;;;;;0.67;0.67;;;;;;;;5100681;27;45256;-76
2023/12/12 06:06:20;;;;;;;;;2.00;2.00;;;;;;;;5100851;27;45393;-76
2023/12/12 06:08:46;;;;;;;;;2.00;1.67;;;;;;;;5100667;27;45464;-75
2023/12/12 06:11:11;;;;;;;;;1.00;1.00;;;;;;;;5099836;27;45415;-75
2023/12/12 06:13:36;;;;;;;;;2.00;2.00;;;;;;;;5100038;27;45341;-75
2023/12/12 06:16:02;;;;;;;;;2.00;2.00;;;;;;;;5100480;27;45296;-74
2023/12/12 06:18:27;;;;;;;;;2.00;2.00;;;;;;;;5100520;27;45401;-74
2023/12/12 06:20:53;;;;;;;;;4.67;4.67;;;;;;;;5100174;27;45471;-72
2023/12/12 06:23:18;;;;;;;;;5.33;5.00;;;;;;;;5099906;27;45437;-75
2023/12/12 06:25:44;;;;;;;;;3.33;3.33;;;;;;;;5099921;27;45595;-75
2023/12/12 06:28:09;;;;;;;;;2.00;2.00;;;;;;;;5100000;27;45405;-75
2023/12/12 06:30:34;;;;;;;;;4.00;4.00;;;;;;;;5099759;27;45892;-73
2023/12/12 06:33:00;;;;;;;;;3.00;3.00;;;;;;;;5099647;27;45411;-74
2023/12/12 06:35:25;;;;;;;;;2.67;2.67;;;;;;;;5100184;27;45425;-76
2023/12/12 06:37:51;;;;;;;;;2.00;2.00;;;;;;;;5100121;27;45511;-74
2023/12/12 06:40:16;;;;;;;;;3.00;2.00;;;;;;;;5099675;27;45386;-75
2023/12/12 06:42:44;;;;;;;;;3.00;2.67;;;;;;;;5099774;27;45421;-73
2023/12/12 06:45:10;;;;;;;;;1.67;1.67;;;;;;;;5099908;27;45308;-75
2023/12/12 06:47:36;;;;;;;;;3.00;2.33;;;;;;;;5099779;27;45433;-73
2023/12/12 06:50:03;;;;;;;;;1.33;1.33;;;;;;;;5099528;27;46149;-74
2023/12/12 06:52:28;;;;;;;;;3.00;3.00;;;;;;;;5099334;27;45277;-75
2023/12/12 06:54:54;;;;;;;;;3.00;3.00;;;;;;;;5099951;27;45305;-73
2023/12/12 06:57:19;;;;;;;;;4.00;3.00;;;;;;;;5099798;27;45218;-75
2023/12/12 06:59:45;;;;;;;;;3.33;3.00;;;;;;;;5099344;27;45418;-73
2023/12/12 07:02:10;;;;;;;;;3.00;2.67;;;;;;;;5099377;27;45523;-73
2023/12/12 07:04:36;;;;;;;;;2.00;2.00;;;;;;;;5099635;27;45352;-73
2023/12/12 07:07:02;;;;;;;;;2.33;1.67;;;;;;;;5098319;27;45461;-73
2023/12/12 07:09:28;;;;;;;;;6.00;5.00;;;;;;;;5098970;27;46246;-73
2023/12/12 07:11:53;;;;;;;;;3.00;2.00;;;;;;;;5099122;27;45798;-75
2023/12/12 07:14:19;;;;;;;;;2.00;2.00;;;;;;;;5099125;27;45314;-73
2023/12/12 07:16:44;;;;;;;;;2.00;2.00;;;;;;;;5099404;27;45498;-75
2023/12/12 07:19:10;;;;;;;;;3.00;2.67;;;;;;;;5099015;27;45540;-75
2023/12/12 07:21:44;;;;;;;;;1.67;1.67;;;;;;;;5098971;27;45297;-76
2023/12/12 07:24:10;;;;;;;;;2.00;2.00;;;;;;;;5099096;27;45482;-75
2023/12/12 07:26:36;;;;;;;;;3.00;3.00;;;;;;;;5099007;27;45436;-73
2023/12/12 07:29:01;;;;;;;;;3.00;2.00;;;;;;;;5098655;27;45397;-73
2023/12/12 07:31:26;;;;;;;;;2.00;2.00;;;;;;;;5099204;27;45317;-73
2023/12/12 07:33:52;;;;;;;;;2.00;1.67;;;;;;;;5098919;27;45549;-73
2023/12/12 07:36:17;;;;;;;;;1.67;1.00;;;;;;;;5099386;27;45457;-72
2023/12/12 07:38:43;;;;;;;;;3.00;2.00;;;;;;;;5098846;27;46100;-73
2023/12/12 07:41:09;;;;;;;;;4.00;2.67;;;;;;;;5098590;27;45429;-72
2023/12/12 07:43:34;;;;;;;;;2.67;2.67;;;;;;;;5099100;27;45857;-72
2023/12/12 07:45:59;;;;;;;;;3.00;2.00;;;;;;;;5098979;27;45661;-73
2023/12/12 07:48:25;;;;;;;;;2.33;2.33;;;;;;;;5098962;27;45959;-73
2023/12/12 07:50:50;;;;;;;;;4.33;3.00;;;;;;;;5098559;27;45450;-73
2023/12/12 07:53:16;;;;;;;;;3.00;3.00;;;;;;;;5098411;27;45412;-76
2023/12/12 07:55:41;;;;;;;;;3.67;3.00;;;;;;;;5098875;27;45418;-72
2023/12/12 07:58:07;;;;;;;;;4.00;3.67;;;;;;;;5098584;27;45369;-73
2023/12/12 08:00:32;;;;;;;;;3.00;3.00;;;;;;;;5098740;27;45366;-73
2023/12/12 08:02:58;;;;;;;;;6.00;5.00;;;;;;;;5099160;27;45365;-72
2023/12/12 08:05:24;;;;;;;;;8.67;7.33;;;;;;;;5098770;27;45330;-72
2023/12/12 08:07:49;;;;;;;;;4.33;4.33;;;;;;;;5079982;27;45330;-71
2023/12/12 08:10:15;;;;;;;;;6.00;6.00;;;;;;;;5098224;27;45303;-73
2023/12/12 08:12:40;;;;;;;;;4.00;3.33;;;;;;;;5098537;27;45401;-71
2023/12/12 08:15:06;;;;;;;;;6.00;4.00;;;;;;;;5098405;27;45614;-75
2023/12/12 08:17:31;;;;;;;;;6.00;5.00;;;;;;;;5098178;27;45976;-73
2023/12/12 08:19:57;;;;;;;;;4.00;3.00;;;;;;;;5098224;27;45227;-72
2023/12/12 08:22:22;;;;;;;;;3.00;3.00;;;;;;;;5098023;27;45395;-75
2023/12/12 08:24:50;;;;;;;;;5.00;4.67;;;;;;;;5097711;27;45282;-73
2023/12/12 08:27:16;;;;;;;;;4.67;4.67;;;;;;;;5097368;27;46379;-72
2023/12/12 08:29:43;;;;;;;;;6.33;6.00;;;;;;;;5097947;27;45362;-72
2023/12/12 08:32:08;;;;;;;;;4.00;4.00;;;;;;;;5097928;27;45554;-72
2023/12/12 08:34:33;;;;;;;;;7.00;6.00;;;;;;;;5098207;27;45580;-72
2023/12/12 08:36:59;;;;;;;;;7.00;5.00;;;;;;;;5098262;27;45452;-72
2023/12/12 08:39:25;;;;;;;;;4.33;4.33;;;;;;;;5097988;27;45263;-72
2023/12/12 08:41:50;;;;;;;;;7.00;5.00;;;;;;;;5098030;27;45531;-75
2023/12/12 08:44:15;;;;;;;;;6.00;6.00;;;;;;;;5098190;27;45436;-73
2023/12/12 08:46:43;;;;;;;;;7.67;4.00;;;;;;;;5097842;27;45418;-73
2023/12/12 08:49:09;;;;;;;;;3.00;3.00;;;;;;;;5097751;27;45462;-73
2023/12/12 08:51:34;;;;;;;;;19.75;17.75;;;;;;;;5097995;27;45291;-72
2023/12/12 08:54:02;;;;;;;;;5.00;4.00;;;;;;;;5098142;27;45295;-74
2023/12/12 08:56:27;;;;;;;;;7.00;5.33;;;;;;;;5097861;27;46254;-74
2023/12/12 08:58:54;;;;;;;;;5.00;4.00;;;;;;;;5097723;27;45286;-74
2023/12/12 09:01:20;;;;;;;;;3.00;3.00;;;;;;;;5097882;27;45224;-75
2023/12/12 09:03:45;;;;;;;;;3.00;3.00;;;;;;;;5079421;27;45555;-74
2023/12/12 09:06:11;;;;;;;;;6.00;4.00;;;;;;;;5097673;27;45255;-74
2023/12/12 09:08:39;;;;;;;;;4.00;3.00;;;;;;;;5097615;27;45526;-73
2023/12/12 09:11:05;;;;;;;;;4.00;4.00;;;;;;;;5097749;27;45150;-74
2023/12/12 09:13:30;;;;;;;;;12.67;11.00;;;;;;;;5097953;27;45326;-74
2023/12/12 09:15:56;;;;;;;;;55.25;45.25;;;;;;;;5097393;27;45209;-77
2023/12/12 09:18:21;;;;;;;;;52.75;43.00;;;;;;;;5097347;27;45318;-73
2023/12/12 09:20:47;;;;;;;;;34.00;31.00;;;;;;;;5097551;27;45414;-73
2023/12/12 09:23:13;;;;;;;;;8.00;7.00;;;;;;;;5097689;27;45349;-74
2023/12/12 09:25:41;;;;;;;;;6.33;5.67;;;;;;;;5097071;27;45353;-73
2023/12/12 09:28:06;;;;;;;;;6.67;5.33;;;;;;;;5097233;27;45302;-73
2023/12/12 09:30:31;;;;;;;;;8.33;7.00;;;;;;;;5097764;27;45654;-73
2023/12/12 09:32:57;;;;;;;;;3.67;3.67;;;;;;;;5097754;27;45398;-74
2023/12/12 09:35:22;;;;;;;;;3.67;2.67;;;;;;;;5097459;27;46247;-71
2023/12/12 09:37:48;;;;;;;;;3.33;3.00;;;;;;;;5100813;27;45512;-75
2023/12/12 09:40:13;;;;;;;;;3.00;3.00;;;;;;;;5100936;27;45559;-73
2023/12/12 09:42:39;;;;;;;;;3.33;3.33;;;;;;;;5101149;27;45356;-73
2023/12/12 09:45:10;;;;;;;;;3.67;2.67;;;;;;;;5100913;27;45448;-72
2023/12/12 09:47:36;;;;;;;;;6.33;6.00;;;;;;;;5100860;27;45519;-74
2023/12/12 09:50:02;;;;;;;;;6.67;5.00;;;;;;;;5100838;27;45374;-77
2023/12/12 09:52:30;;;;;;;;;3.67;3.33;;;;;;;;5100858;27;45573;-72
2023/12/12 09:54:57;;;;;;;;;5.00;4.00;;;;;;;;5100279;27;45412;-75
2023/12/12 09:57:23;;;;;;;;;7.67;6.33;;;;;;;;5100498;27;45381;-74
2023/12/12 09:59:49;;;;;;;;;5.33;5.33;;;;;;;;5100297;27;45432;-73
2023/12/12 10:02:20;;;;;;;;;3.67;3.33;;;;;;;;5100710;27;45286;-73
2023/12/12 10:04:45;;;;;;;;;5.33;5.00;;;;;;;;5100371;27;45359;-72
2023/12/12 10:07:13;;;;;;;;;9.67;5.67;;;;;;;;5100266;27;45479;-75
2023/12/12 10:09:39;;;;;;;;;7.33;6.00;;;;;;;;5100516;27;45320;-74
2023/12/12 10:12:05;;;;;;;;;8.33;6.67;;;;;;;;5100904;27;45335;-72
2023/12/12 10:14:39;;;;;;;;;6.67;6.67;;;;;;;;5100153;27;45409;-75
2023/12/12 10:17:05;;;;;;;;;3.67;2.67;;;;;;;;5100502;27;45301;-74
2023/12/12 10:19:31;;;;;;;;;3.67;2.00;;;;;;;;5100264;27;45306;-75
2023/12/12 10:21:59;;;;;;;;;2.67;2.00;;;;;;;;5082127;27;45519;-74
2023/12/12 10:24:25;;;;;;;;;4.00;3.00;;;;;;;;5100041;27;46088;-74
2023/12/12 10:26:50;;;;;;;;;0.33;0.00;;;;;;;;5100195;27;45465;-73
2023/12/12 10:29:19;;;;;;;;;2.00;1.00;;;;;;;;5100313;27;45424;-74
2023/12/12 10:31:45;;;;;;;;;1.00;1.00;;;;;;;;5100254;27;45289;-74
2023/12/12 10:34:11;;;;;;;;;0.67;0.00;;;;;;;;5099750;27;45432;-74
2023/12/12 10:36:37;;;;;;;;;1.00;1.00;;;;;;;;5100046;27;45334;-74
2023/12/12 10:39:15;;;;;;;;;1.67;1.00;;;;;;;;5099993;27;45462;-74
2023/12/12 10:41:50;;;;;;;;;0.33;0.33;;;;;;;;5100143;27;45512;-76
2023/12/12 10:44:18;;;;;;;;;2.00;1.00;;;;;;;;5099558;27;45475;-74
2023/12/12 10:46:43;;;;;;;;;0.33;0.00;;;;;;;;5099542;27;45400;-76
2023/12/12 10:49:10;;;;;;;;;1.00;0.00;;;;;;;;5100169;27;45303;-75
2023/12/12 10:51:36;;;;;;;;;2.00;1.00;;;;;;;;5100178;27;45427;-76
2023/12/12 10:54:03;;;;;;;;;2.00;2.00;;;;;;;;5099251;27;46197;-76
2023/12/12 10:56:35;;;;;;;;;2.00;1.00;;;;;;;;5080415;27;45509;-74
2023/12/12 10:59:02;;;;;;;;;3.00;2.00;;;;;;;;5099250;27;45241;-72
2023/12/12 11:01:28;;;;;;;;;1.00;1.00;;;;;;;;5098873;27;45315;-73
2023/12/12 11:03:57;;;;;;;;;0.00;0.00;;;;;;;;5098612;27;46029;-73
2023/12/12 11:06:23;;;;;;;;;0.00;0.00;;;;;;;;5099099;27;45469;-73
2023/12/12 11:08:48;;;;;;;;;0.00;0.00;;;;;;;;5099450;27;45308;-76
2023/12/12 11:11:16;;;;;;;;;0.00;0.00;;;;;;;;5064126;27;45326;-75
2023/12/12 11:13:42;;;;;;;;;0.33;0.33;;;;;;;;5058002;28;46041;-73
2023/12/12 11:16:08;;;;;;;;;3.00;3.00;;;;;;;;5058858;28;45536;-74
2023/12/12 11:18:37;;;;;;;;;0.00;0.00;;;;;;;;5058764;28;45530;-74
2023/12/12 11:21:03;;;;;;;;;0.33;0.00;;;;;;;;5058874;28;45537;-73
2023/12/12 11:23:53;;;;;;;;;0.00;0.00;;;;;;;;5058325;28;46072;-73
2023/12/12 11:26:19;;;;;;;;;0.00;0.00;;;;;;;;5058524;28;45297;-74
2023/12/12 11:28:45;;;;;;;;;0.00;0.00;;;;;;;;5058268;28;45345;-75
2023/12/12 11:31:10;;;;;;;;;0.00;0.00;;;;;;;;5059006;28;45338;-74
2023/12/12 11:33:56;;;;;;;;;0.00;0.00;;;;;;;;5058214;28;46147;-74
2023/12/12 11:36:41;;;;;;;;;0.00;0.00;;;;;;;;5058082;28;45166;-74
2023/12/12 11:39:08;;;;;;;;;0.00;0.00;;;;;;;;5043892;28;45521;-75
2023/12/12 11:41:34;;;;;;;;;0.00;0.00;;;;;;;;5058335;28;45540;-74
2023/12/12 11:44:00;;;;;;;;;3.67;3.67;;;;;;;;5057985;28;45335;-74
2023/12/12 11:46:26;;;;;;;;;7.67;7.00;;;;;;;;5058017;28;45549;-73
2023/12/12 11:48:52;;;;;;;;;1.00;1.00;;;;;;;;5058108;28;45544;-75
2023/12/12 11:51:36;;;;;;;;;0.00;0.00;;;;;;;;5058422;28;45228;-76
2023/12/12 11:54:08;;;;;;;;;1.00;1.00;;;;;;;;5072499;28;46482;-74
2023/12/12 11:56:33;;;;;;;;;0.00;0.00;;;;;;;;5078217;28;45295;-74
2023/12/12 11:59:00;;;;;;;;;0.00;0.00;;;;;;;;5078532;27;45366;-76
2023/12/12 12:01:26;;;;;;;;;16.50;15.25;;;;;;;;5098510;27;45936;-74
2023/12/12 12:03:51;;;;;;;;;9.75;9.75;;;;;;;;5097537;27;46330;-75
2023/12/12 12:06:17;;;;;;;;;7.00;7.00;;;;;;;;5098388;27;45516;-74
2023/12/12 12:08:42;;;;;;;;;7.00;6.33;;;;;;;;5098507;27;45471;-76
2023/12/12 12:11:08;;;;;;;;;6.00;6.00;;;;;;;;5098331;27;45333;-76
2023/12/12 12:13:40;;;;;;;;;2.33;2.00;;;;;;;;5096838;27;46734;-76
2023/12/12 12:16:05;;;;;;;;;0.00;0.00;;;;;;;;5098545;27;45403;-76
2023/12/12 12:18:31;;;;;;;;;0.00;0.00;;;;;;;;5098399;27;45437;-76
2023/12/12 12:20:57;;;;;;;;;8.75;8.00;;;;;;;;5098440;27;45471;-76
2023/12/12 12:23:22;;;;;;;;;1.00;1.00;;;;;;;;5098207;27;45361;-76
2023/12/12 12:25:48;;;;;;;;;0.00;0.00;;;;;;;;5098278;27;45270;-73
2023/12/12 12:28:13;;;;;;;;;0.00;0.00;;;;;;;;5098808;27;45404;-73
2023/12/12 12:30:46;;;;;;;;;3.00;2.67;;;;;;;;5098617;27;45265;-75
2023/12/12 12:33:11;;;;;;;;;131.50;123.75;;;;;;;;5098438;27;45383;-75
2023/12/12 12:35:49;;;;;;;;;9.00;8.00;;;;;;;;5098085;27;45482;-75
2023/12/12 12:38:23;;;;;;;;;9.00;9.00;;;;;;;;5098626;27;45343;-74
2023/12/12 12:40:49;;;;;;;;;6.67;6.00;;;;;;;;5098010;27;45640;-75
2023/12/12 12:43:15;;;;;;;;;8.67;8.00;;;;;;;;5098092;27;45301;-76
2023/12/12 12:45:40;;;;;;;;;7.00;6.00;;;;;;;;5097843;27;45298;-74
2023/12/12 12:48:06;;;;;;;;;0.33;0.33;;;;;;;;5098024;27;45349;-76
2023/12/12 12:50:31;;;;;;;;;0.00;0.00;;;;;;;;5098325;27;45432;-76
2023/12/12 12:52:58;;;;;;;;;3.00;2.67;;;;;;;;5097852;27;46207;-76
2023/12/12 12:55:24;;;;;;;;;6.00;6.00;;;;;;;;5097670;27;45476;-76
2023/12/12 12:57:49;;;;;;;;;4.67;4.00;;;;;;;;5097936;27;45365;-75
2023/12/12 13:00:17;;;;;;;;;2.00;2.00;;;;;;;;5098349;27;45478;-76
2023/12/12 13:02:42;;;;;;;;;3.33;3.33;;;;;;;;5096756;27;46485;-75
2023/12/12 13:05:08;;;;;;;;;1.00;1.00;;;;;;;;5097707;27;45343;-75
2023/12/12 13:07:33;;;;;;;;;4.33;4.00;;;;;;;;5097952;27;45461;-76
2023/12/12 13:10:00;;;;;;;;;8.67;8.33;;;;;;;;5099388;27;45234;-76
2023/12/12 13:12:26;;;;;;;;;0.00;0.00;;;;;;;;5101225;27;46219;-75
2023/12/12 13:14:53;;;;;;;;;1.00;0.33;;;;;;;;5101094;27;45613;-76
2023/12/12 13:17:19;;;;;;;;;1.33;1.33;;;;;;;;5101367;27;45324;-74
2023/12/12 13:19:44;;;;;;;;;4.67;4.00;;;;;;;;5101647;27;45493;-76
2023/12/12 13:22:09;;;;;;;;;2.00;2.00;;;;;;;;5101309;27;46128;-76
2023/12/12 13:24:35;;;;;;;;;1.00;1.00;;;;;;;;5101061;27;45462;-76
2023/12/12 13:27:00;;;;;;;;;0.00;0.00;;;;;;;;5101228;27;45510;-76
2023/12/12 13:29:25;;;;;;;;;1.33;1.00;;;;;;;;5101510;27;45322;-76
2023/12/12 13:31:51;;;;;;;;;0.33;0.33;;;;;;;;5100933;27;45613;-76
2023/12/12 13:34:16;;;;;;;;;6.00;4.67;;;;;;;;5101252;27;45326;-76
2023/12/12 13:36:43;;;;;;;;;2.00;2.00;;;;;;;;5101155;27;45672;-73
2023/12/12 13:39:12;;;;;;;;;3.00;3.00;;;;;;;;5101169;27;45150;-77
2023/12/12 13:41:41;;;;;;;;;8.00;7.67;;;;;;;;5100479;27;46123;-76
2023/12/12 13:44:06;;;;;;;;;2.00;2.00;;;;;;;;5100819;27;45285;-75
2023/12/12 13:46:31;;;;;;;;;2.00;2.00;;;;;;;;5101087;27;45341;-75
2023/12/12 13:48:57;;;;;;;;;1.00;0.00;;;;;;;;5101173;27;45238;-76
2023/12/12 13:51:22;;;;;;;;;0.67;0.67;;;;;;;;5100614;27;45340;-76
2023/12/12 13:53:50;;;;;;;;;23.75;22.75;;;;;;;;5100558;27;45456;-76
2023/12/12 13:56:15;;;;;;;;;2.00;2.00;;;;;;;;5100958;27;45457;-74
2023/12/12 13:58:41;;;;;;;;;2.33;2.00;;;;;;;;5100779;27;45206;-74
2023/12/12 14:01:06;;;;;;;;;22.50;20.00;;;;;;;;5100387;27;46106;-75
2023/12/12 14:03:32;;;;;;;;;4.00;3.33;;;;;;;;5100733;27;45371;-76
2023/12/12 14:05:57;;;;;;;;;0.00;0.00;;;;;;;;5100698;27;45457;-76
2023/12/12 14:08:22;;;;;;;;;8.33;7.00;;;;;;;;5100647;27;45348;-74
2023/12/12 14:10:48;;;;;;;;;9.33;8.33;;;;;;;;5100640;27;45901;-76
2023/12/12 14:13:13;;;;;;;;;15.00;11.00;;;;;;;;5100475;27;45484;-74
2023/12/12 14:15:38;;;;;;;;;3.33;2.67;;;;;;;;5100590;27;45809;-75
2023/12/12 14:18:04;;;;;;;;;4.00;4.00;;;;;;;;5100524;27;45339;-76
2023/12/12 14:20:29;;;;;;;;;4.67;4.33;;;;;;;;5100001;27;46102;-76
2023/12/12 14:22:55;;;;;;;;;12.75;12.50;;;;;;;;5099200;27;45444;-75
2023/12/12 14:25:20;;;;;;;;;5.00;5.00;;;;;;;;5100553;27;45292;-76
2023/12/12 14:27:46;;;;;;;;;4.67;4.00;;;;;;;;5100449;27;45566;-76
2023/12/12 14:30:15;;;;;;;;;10.67;9.67;;;;;;;;5100043;27;45424;-75
2023/12/12 14:32:43;;;;;;;;;5.33;3.00;;;;;;;;5100031;27;45285;-76
2023/12/12 14:35:08;;;;;;;;;0.00;0.00;;;;;;;;5100042;27;45560;-76
2023/12/12 14:37:34;;;;;;;;;5.67;5.67;;;;;;;;5100159;27;45298;-76